Terminal Aerodrome Forecast
Issued by NWS Louisville, KY

Home | Current Version | Previous Version | Text Only | Print | Product List | Glossary Off
Versions: 1 2 3 4 5 6 7 8 9 10 11 12 13 14 15 16 17

000
FTUS43 KLMK 231100
TAFBWG
TAF
KBWG 231123Z 2312/2412 00000KT P6SM BKN150
     FM231500 25005KT P6SM SCT045
     FM240000 VRB03KT P6SM SCT045 BKN150=

USA.gov is the U.S. government's official web portal to all federal, state and local government web resources and services.